Tiempo atmosférico en la estación meteorológica de Isaba/Izaba, Navarra (820 m.)



Fecha
DESCASC
Temp. máxima en grados centígrados (hora)
DESCASC
Temp. mínima en grados centígrados (hora)
DESCASC
Temp. media en grados centígrados
DESCASC
Racha de viento máxima en m/sg (hora)
DESCASC
Velocidad máxima media en intervalos de 10 minutos(hora)
DESCASC
Precipitaciones diarias en mm
DESCASC
Precipitaciones de 00:00 a 06:00 en mm
DESCASC
Precipitaciones de 06:00 a 12:00 en mm
DESCASC
Precipitaciones de 12:00 a 18:00 en mm
DESCASC
Precipitaciones de 18:00 a 24:00 en mm
DESCASC
20-09-2020 22.3 (15:00) 10.1 (06:30) 16.2 5.56 (12:30) 3.06 (12:50) 0.2 0.2 0 0 0
19-09-2020 17.5 (11:10) 12.7 (23:20) 15.1 12.5 (16:50) 5.56 (16:50) 17 1 0.8 7 8.2
18-09-2020 23.4 (00:30) 13 (23:20) 18.2 15 (14:30) 8.89 (13:40) 11.8 0 0 0.2 11.6
17-09-2020 28.4 (15:10) 10.3 (00:00) 19.3 11.11 (23:50) 5.83 (23:50) 0 0 0 0 0
16-09-2020 31.5 (14:20) 9.8 (00:00) 20.7 8.61 (17:30) 5 (18:00) 0 0 0 0 0
15-09-2020 28.3 (17:30) 13.6 (00:00) 20.9 9.17 (04:50) 5.56 (18:50) 2.2 0 2.2 0 0
14-09-2020 30.5 (16:20) 9.5 (00:00) 20 10.83 (14:10) 4.17 (15:20) 0 0 0 0 0
13-09-2020 31.1 (16:20) 8.1 (00:00) 19.6 10.28 (14:00) 4.17 (13:30) 0 0 0 0 0
12-09-2020 29.4 (15:10) 8.7 (00:00) 19 11.94 (16:40) 8.06 (16:20) 0 0 0 0 0
11-09-2020 26.9 (14:10) 9.5 (00:00) 18.2 13.33 (17:00) 8.89 (17:10) 0 0 0 0 0
10-09-2020 25.5 (13:40) 12.2 (00:00) 18.8 13.89 (17:00) 8.06 (15:50) 0 0 0 0 0
09-09-2020 26.2 (13:30) 6.1 (00:00) 16.2 16.11 (16:10) 11.11 (16:10) 0 0 0 0 0
08-09-2020 26.9 (14:30) 5.1 (00:00) 16 10.56 (02:00) 7.22 (16:10) 0 0 0 0 0
07-09-2020 17.7 (15:20) 9.5 (06:50) 13.6 18.89 (14:10) 10.28 (13:40) 0 0 0 0 0
06-09-2020 19.7 (13:10) 8.7 (00:00) 14.2 16.94 (17:20) 10.83 (15:50) 0 0 0 0 0
05-09-2020 28.4 (13:30) 8.3 (00:00) 18.3 13.61 (16:20) 8.89 (16:20) 0 0 0 0 0
04-09-2020 31 (16:00) 6.7 (00:00) 18.8 8.33 (14:20) 4.17 (14:20) 0 0 0 0 0
03-09-2020 29.9 (15:40) 4.7 (00:00) 17.3 6.11 (18:00) 3.89 (18:00) 0 0 0 0 0
02-09-2020 23.2 (14:20) 9.4 (00:00) 16.3 12.22 (18:30) 8.06 (17:00) 0 0 0 0 0
01-09-2020 24.4 (14:00) 4.8 (00:00) 14.6 11.67 (18:30) 6.67 (18:00) 0 0 0 0 0
31-08-2020 25.1 (15:30) 3 (00:00) 14.1 9.17 (19:00) 5.83 (18:40) 0 0 0 0 0
30-08-2020 15.8 (14:10) 7.9 (00:00) 11.9 12.5 (16:50) 8.06 (16:50) 8.8 7 1.4 0.4 0
29-08-2020 20.4 (15:40) 8 (00:00) 14.2 10.83 (15:50) 5.83 (11:00) 3.6 0 0 0 3.6
28-08-2020 19.3 (15:50) 11.7 (00:00) 15.5 11.94 (17:30) 7.22 (18:00) 0 0 0 0 0
27-08-2020 34.6 (15:40) 9.5 (00:00) 22 11.11 (17:20) 7.78 (17:20) 0 0 0 0 0
26-08-2020 33.3 (14:50) 10.7 (00:00) 22 8.89 (17:00) 6.11 (17:00) 0 0 0 0 0
25-08-2020 33.1 (16:00) 7.2 (00:00) 20.1 8.33 (20:00) 5 (20:00) 0 0 0 0 0
24-08-2020 28.4 (16:10) 8.5 (00:00) 18.4 9.17 (12:50) 6.39 (13:00) 0 0 0 0 0
23-08-2020 24.5 (14:30) 9.8 (00:00) 17.2 14.72 (16:20) 9.44 (15:40) 0 0 0 0 0
22-08-2020 27.9 (14:20) 11.2 (00:00) 19.5 11.67 (18:30) 7.78 (18:30) 0 0 0 0 0

Gráficas

Temp. máximas Temp. mínimas Temp. medias Precipitaciones Rachas de viento máximas Velocidades máximas media en intervalos de 10 minutos

Datos horarios

Fecha y hora oficial Temperatura (ºC) Velocidad del viento (km/h) Dirección del viento Racha (km/h) Dirección de racha Precipitación (mm) Presión (hPa) Tendencia (hPa) Humedad (%)
2020-09-20 23:00:00 13.4 0 Calma 5 Norte 0 -- -- 96
2020-09-20 22:00:00 13.8 3 Norte 6 Norte 0 -- -- 95
2020-09-20 21:00:00 14 2 Norte 5 Noroeste 0 -- -- 93
2020-09-20 20:00:00 15.2 3 Noroeste 8 Noroeste 0 -- -- 88
2020-09-20 19:00:00 17.1 0 Calma 9 Sudoeste 0 -- -- 77
2020-09-20 18:00:00 18.8 4 Sudoeste 8 Este 0 -- -- 67
2020-09-20 17:00:00 20.5 3 Sudoeste 6 Oeste 0 -- -- 66
2020-09-20 16:00:00 20.8 6 Sur 16 Sudoeste 0 -- -- 57
2020-09-20 15:00:00 22.3 8 Sur 15 Sur 0 -- -- 50
2020-09-20 14:00:00 19.8 2 Noroeste 15 Sur 0 -- -- 60
2020-09-20 13:00:00 19.1 9 Sur 20 Sur 0 -- -- 61
2020-09-20 12:00:00 16.8 3 Norte 8 Sur 0 -- -- 82
2020-09-20 11:00:00 14.3 3 Nordeste 7 Norte 0 -- -- 96
2020-09-20 10:00:00 11.7 2 Norte 5 Noroeste 0 -- -- 99
2020-09-20 09:00:00 10.9 3 Este 7 Nordeste 0 -- -- 100
2020-09-20 08:00:00 10.6 0 Calma 6 Nordeste 0 -- -- 100
2020-09-20 07:00:00 10.3 0 Calma 13 Nordeste 0 -- -- 100
2020-09-20 06:00:00 10.5 0 Calma 6 Sudoeste 0 -- -- 100
2020-09-20 05:00:00 11.1 2 Sudoeste 5 Nordeste 0 -- -- 100
2020-09-20 04:00:00 11.6 0 Calma 4 Sur 0 -- -- 100
2020-09-20 03:00:00 12.1 0 Calma 6 Norte 0 -- -- 100
2020-09-20 02:00:00 12.5 0 Calma 6 Norte 0.2 -- -- 100
2020-09-20 01:00:00 12.4 2 Noroeste 9 Noroeste 0 -- -- 100
2020-09-20 00:00:00 12.7 3 Sudoeste 7 Sudeste 0 -- -- 100
2020-09-19 23:00:00 12.8 0 Calma 6 Sudeste 0 -- -- 99
2020-09-19 22:00:00 13.3 3 Sur 5 Sudeste 0 -- -- 99
2020-09-19 21:00:00 13.6 2 Sur 4 Sur 0.4 -- -- 99
2020-09-19 20:00:00 13.9 2 Sudoeste 12 Sudoeste 0 -- -- 97
2020-09-19 19:00:00 14.2 7 Sudoeste 29 Sudoeste 7.8 -- -- 97
2020-09-19 18:00:00 14.6 7 Sur 22 Este 2.4 -- -- 92
2020-09-19 17:00:00 14.8 10 Sur 45 Sur 3.6 -- -- 90
2020-09-19 16:00:00 16 6 Sur 23 Sudeste 0.6 -- -- 83
2020-09-19 15:00:00 16.3 6 Sur 24 Sur 0 -- -- 78
2020-09-19 14:00:00 15.8 8 Sudoeste 24 Sudoeste 0.4 -- -- 83
2020-09-19 13:00:00 15.3 12 Sur 31 Sudoeste 0 -- -- 81
2020-09-19 12:00:00 16.6 14 Sudoeste 35 Sudoeste 0 -- -- 74
2020-09-19 11:00:00 17.1 14 Sur 31 Sudoeste 0 -- -- 71
2020-09-19 10:00:00 15.6 14 Sudeste 31 Sudeste 0 -- -- 78
2020-09-19 09:00:00 14 8 Sudoeste 19 Sudeste 0.4 -- -- 88
2020-09-19 08:00:00 14.3 9 Sur 30 Este 0.4 -- -- 86
2020-09-19 07:00:00 15.5 18 Sudeste 38 Este 0 -- -- 79
2020-09-19 06:00:00 15 9 Sur 32 Sudeste 1 -- -- 84
2020-09-19 05:00:00 16.5 10 Sur 31 Sudoeste 0 -- -- 72
2020-09-19 04:00:00 16.3 12 Sudeste 35 Sudeste 0 -- -- 73
2020-09-19 03:00:00 16.4 9 Sur 34 Sudoeste 0 -- -- 77
2020-09-19 02:00:00 15.8 7 Sur 40 Sur 0 -- -- 86
2020-09-19 01:00:00 15.5 8 Sudoeste 19 Sudoeste 0 -- -- 90
2020-09-19 00:00:00 13.9 7 Sudoeste 13 Sur 0.2 -- -- 100
2020-09-18 23:00:00 13.3 4 Noroeste 8 Sudoeste 0 -- -- 99
2020-09-18 22:00:00 13.6 3 Oeste 9 Sur 0.2 -- -- 98
2020-09-18 21:00:00 14.3 0 Calma 26 Nordeste 1.2 -- -- 98
2020-09-18 20:00:00 15.3 8 Nordeste 19 Nordeste 6.2 -- -- 98
2020-09-18 19:00:00 15.6 3 Sur 15 Sur 3.8 -- -- 96
2020-09-18 18:00:00 17.7 6 Sur 30 Este 0.2 -- -- 81
2020-09-18 17:00:00 22 17 Sudeste 45 Sudoeste 0 -- -- 49
2020-09-18 16:00:00 23.1 16 Sur 51 Sudoeste 0 -- -- 45
2020-09-18 15:00:00 22 15 Sudoeste 54 Sudeste 0 -- -- 51
2020-09-18 14:00:00 21 22 Sudeste 53 Sudeste 0 -- -- 56
2020-09-18 13:00:00 20.9 26 Sudeste 52 Sudeste 0 -- -- 55
2020-09-18 12:00:00 20.9 21 Sur 47 Este 0 -- -- 53
2020-09-18 11:00:00 20.3 18 Sur 36 Sur 0 -- -- 53
2020-09-18 10:00:00 20.3 17 Sur 46 Sur 0 -- -- 50
2020-09-18 09:00:00 19.5 6 Sur 39 Sudeste 0 -- -- 56
2020-09-18 08:00:00 18.6 10 Sur 28 Sudeste 0 -- -- 59
2020-09-18 07:00:00 18.9 12 Sur 33 Este 0 -- -- 55
2020-09-18 06:00:00 20.8 9 Sur 20 Sudoeste 0 -- -- 44
2020-09-18 05:00:00 20.5 7 Sudoeste 18 Sudoeste 0 -- -- 45
2020-09-18 04:00:00 21.2 10 Sur 32 Sudoeste 0 -- -- 40
2020-09-18 03:00:00 22.4 14 Sur 40 Sudeste 0 -- -- 40
2020-09-18 02:00:00 22.6 14 Sur 38 Sudeste 0 -- -- 41
2020-09-18 01:00:00 23.1 17 Sur 47 Sudeste 0 -- -- 39
2020-09-18 00:00:00 23.2 14 Sur 40 Sur 0 -- -- 38
2020-09-17 23:00:00 22.3 9 Sudeste 30 Sudeste 0 -- -- 41
2020-09-17 22:00:00 19.8 8 Sur 28 Sur 0 -- -- 50
2020-09-17 21:00:00 19.8 5 Sur 23 Sudeste 0 -- -- 52
2020-09-17 20:00:00 24 14 Sudeste 25 Este 0 -- -- 37
2020-09-17 19:00:00 24.6 13 Sudeste 31 Sudeste 0 -- -- 36
2020-09-17 18:00:00 25.2 12 Sudoeste 30 Sudeste 0 -- -- 36
2020-09-17 17:00:00 25.4 12 Sudeste 36 Sudoeste 0 -- -- 35
2020-09-17 16:00:00 26.6 15 Sudoeste 35 Sur 0 -- -- 33
2020-09-17 15:00:00 28 9 Sudeste 27 Este 0 -- -- 30
2020-09-17 14:00:00 26.4 9 Sudoeste 29 Sudoeste 0 -- -- 39
2020-09-17 13:00:00 24.3 5 Sudoeste 18 Sudeste 0 -- -- 46
2020-09-17 12:00:00 21.4 3 Sur 8 Este 0 -- -- 63
2020-09-17 11:00:00 18 0 Calma 4 Noroeste 0 -- -- 71
2020-09-17 10:00:00 15.3 0 Calma 6 Noroeste 0 -- -- 81
2020-09-17 09:00:00 12 4 Norte 10 Noroeste 0 -- -- 95
2020-09-17 08:00:00 10.3 3 Norte 9 Noroeste 0 -- -- 98
2020-09-17 07:00:00 10.4 5 Norte 10 Norte 0 -- -- 98
2020-09-17 06:00:00 10.5 5 Norte 9 Norte 0 -- -- 98
2020-09-17 05:00:00 10.9 5 Norte 9 Norte 0 -- -- 97
2020-09-17 04:00:00 11.3 5 Norte 9 Norte 0 -- -- 96
2020-09-17 03:00:00 11.7 4 Norte 9 Noroeste 0 -- -- 95
2020-09-17 02:00:00 12.5 5 Norte 10 Noroeste 0 -- -- 93
2020-09-17 01:00:00 13.2 5 Norte 12 Norte 0 -- -- 91
2020-09-17 00:00:00 14.2 4 Norte 10 Norte 0 -- -- 87
2020-09-16 23:00:00 15.5 4 Norte 9 Norte 0 -- -- 82
2020-09-16 22:00:00 17.2 3 Norte 13 Norte 0 -- -- 75
2020-09-16 21:00:00 19.2 6 Norte 14 Norte 0 -- -- 67
2020-09-16 20:00:00 22.3 3 Nordeste 15 Nordeste 0 -- -- 54
2020-09-16 19:00:00 24.6 7 Nordeste 28 Nordeste 0 -- -- 49
2020-09-16 18:00:00 26.9 18 Nordeste 31 Nordeste 0 -- -- 42
2020-09-16 17:00:00 28.2 14 Nordeste 26 Nordeste 0 -- -- 39
2020-09-16 16:00:00 26.8 9 Norte 19 Norte 0 -- -- 42
2020-09-16 15:00:00 28.5 12 Norte 20 Norte 0 -- -- 38
2020-09-16 14:00:00 31.2 7 Norte 19 Norte 0 -- -- 31
2020-09-16 13:00:00 29.1 4 Sur 8 Sur 0 -- -- 33
2020-09-16 12:00:00 25.3 0 Calma 4 Este 0 -- -- 50
2020-09-16 11:00:00 19.1 0 Calma 3 Nordeste 0 -- -- 66
2020-09-16 10:00:00 14.2 2 Norte 6 Nordeste 0 -- -- 85
2020-09-16 09:00:00 10.6 4 Norte 9 Norte 0 -- -- 99
2020-09-16 08:00:00 9.9 5 Norte 12 Norte 0 -- -- 99
2020-09-16 07:00:00 10 6 Norte 12 Norte 0 -- -- 99
2020-09-16 06:00:00 10.3 5 Norte 11 Norte 0 -- -- 98
2020-09-16 05:00:00 10.7 5 Norte 10 Norte 0 -- -- 98
2020-09-16 04:00:00 11.2 5 Norte 10 Noroeste 0 -- -- 97
2020-09-16 03:00:00 11.6 5 Norte 9 Norte 0 -- -- 97
2020-09-16 02:00:00 12.1 5 Norte 10 Noroeste 0 -- -- 95
2020-09-16 01:00:00 12.8 5 Norte 10 Norte 0 -- -- 93
2020-09-16 00:00:00 13.6 6 Norte 10 Norte 0 -- -- 92
2020-09-15 23:00:00 14.6 5 Norte 9 Norte 0 -- -- 89
2020-09-15 22:00:00 15.7 5 Norte 10 Norte 0 -- -- 85
2020-09-15 21:00:00 17.4 6 Norte 10 Norte 0 -- -- 78
2020-09-15 20:00:00 21 5 Norte 25 Nordeste 0 -- -- 64
2020-09-15 19:00:00 23.6 16 Nordeste 30 Nordeste 0 -- -- 52
2020-09-15 18:00:00 26.9 7 Sur 21 Oeste 0 -- -- 37
2020-09-15 17:00:00 25.8 8 Sudoeste 24 Sudoeste 0 -- -- 37
2020-09-15 16:00:00 27.2 7 Sudoeste 26 Sudoeste 0 -- -- 37
2020-09-15 15:00:00 27.4 12 Sudoeste 26 Sur 0 -- -- 35
2020-09-15 14:00:00 27.6 9 Sur 23 Sudoeste 0 -- -- 39
2020-09-15 13:00:00 25.8 10 Sudoeste 23 Sudoeste 0 -- -- 45
2020-09-15 12:00:00 21.7 10 Sur 17 Sudoeste 0 -- -- 67
2020-09-15 11:00:00 20.2 3 Sudeste 7 Sur 0 -- -- 75
2020-09-15 10:00:00 16.9 2 Norte 5 Norte 0 -- -- 93
2020-09-15 09:00:00 15.1 3 Norte 5 Norte 0 -- -- 98
2020-09-15 08:00:00 14.4 0 Calma 9 Nordeste 1.6 -- -- 97
2020-09-15 07:00:00 14.8 2 Sudoeste 9 Sur 0.6 -- -- 93
2020-09-15 06:00:00 17.4 7 Sudeste 26 Este 0 -- -- 70
2020-09-15 05:00:00 21.6 15 Sudeste 33 Sudeste 0 -- -- 41
2020-09-15 04:00:00 19.6 8 Sudoeste 19 Sur 0 -- -- 52
2020-09-15 03:00:00 15.7 5 Nordeste 17 Noroeste 0 -- -- 72
2020-09-15 02:00:00 14.7 4 Norte 10 Noroeste 0 -- -- 76
2020-09-15 01:00:00 15.2 4 Norte 10 Noroeste 0 -- -- 73
2020-09-15 00:00:00 15.4 2 Norte 9 Norte 0 -- -- 71
2020-09-14 23:00:00 15.6 4 Norte 9 Norte 0 -- -- 70
2020-09-14 22:00:00 17.1 3 Norte 9 Norte 0 -- -- 65
2020-09-14 21:00:00 19.1 4 Noroeste 10 Noroeste 0 -- -- 56
2020-09-14 20:00:00 22.6 3 Noroeste 17 Sudoeste 0 -- -- 43
2020-09-14 19:00:00 26.5 10 Sudoeste 30 Sudoeste 0 -- -- 29
2020-09-14 18:00:00 28.2 13 Sudoeste 36 Noroeste 0 -- -- 28
2020-09-14 17:00:00 29.5 14 Sudoeste 31 Sudoeste 0 -- -- 24
2020-09-14 16:00:00 29 13 Sudoeste 36 Sudoeste 0 -- -- 26
2020-09-14 15:00:00 30.1 8 Sudoeste 39 Sudoeste 0 -- -- 25
2020-09-14 14:00:00 29.8 12 Sur 29 Sur 0 -- -- 29
2020-09-14 13:00:00 29 12 Sudoeste 32 Sur 0 -- -- 28
2020-09-14 12:00:00 27.7 10 Sur 30 Sudoeste 0 -- -- 28
2020-09-14 11:00:00 22.6 3 Sudeste 12 Sudeste 0 -- -- 49
2020-09-14 10:00:00 15.9 2 Nordeste 7 Este 0 -- -- 67
2020-09-14 09:00:00 10.1 2 Nordeste 6 Norte 0 -- -- 88
2020-09-14 08:00:00 9.7 2 Nordeste 6 Noroeste 0 -- -- 87
2020-09-14 07:00:00 10.3 2 Este 9 Noroeste 0 -- -- 84
2020-09-14 06:00:00 10.8 3 Nordeste 7 Noroeste 0 -- -- 83
2020-09-14 05:00:00 11 4 Norte 10 Norte 0 -- -- 83
2020-09-14 04:00:00 11.1 3 Norte 11 Nordeste 0 -- -- 85
2020-09-14 03:00:00 11.8 5 Norte 13 Nordeste 0 -- -- 83
2020-09-14 02:00:00 11.8 2 Norte 12 Norte 0 -- -- 85
2020-09-14 01:00:00 12.5 6 Norte 14 Norte 0 -- -- 83
2020-09-14 00:00:00 13.4 4 Norte 12 Noroeste 0 -- -- 80
2020-09-13 23:00:00 14.4 4 Noroeste 10 Noroeste 0 -- -- 77
2020-09-13 22:00:00 16 3 Norte 14 Norte 0 -- -- 71
2020-09-13 21:00:00 18.3 5 Noroeste 11 Noroeste 0 -- -- 62
2020-09-13 20:00:00 22.2 6 Noroeste 18 Sur 0 -- -- 46
2020-09-13 19:00:00 26.9 6 Oeste 21 Sur 0 -- -- 32
2020-09-13 18:00:00 29.6 6 Oeste 26 Oeste 0 -- -- 28
2020-09-13 17:00:00 30.4 4 Sur 21 Sudoeste 0 -- -- 27
2020-09-13 16:00:00 31 9 Sudeste 26 Sur 0 -- -- 26
2020-09-13 15:00:00 30.5 10 Sudoeste 31 Sur 0 -- -- 26
2020-09-13 14:00:00 29.2 13 Sur 37 Sudoeste 0 -- -- 29
2020-09-13 13:00:00 28.4 12 Sudoeste 33 Sudoeste 0 -- -- 31
2020-09-13 12:00:00 27.6 9 Sur 22 Sur 0 -- -- 35
2020-09-13 11:00:00 20.1 3 Nordeste 6 Sudeste 0 -- -- 60
2020-09-13 10:00:00 13.9 0 Calma 5 Norte 0 -- -- 80
2020-09-13 09:00:00 8.3 2 Norte 7 Norte 0 -- -- 99
2020-09-13 08:00:00 8.1 3 Norte 7 Norte 0 -- -- 99
2020-09-13 07:00:00 8.5 3 Norte 11 Norte 0 -- -- 99
2020-09-13 06:00:00 9 3 Norte 11 Norte 0 -- -- 99
2020-09-13 05:00:00 9.2 3 Norte 9 Norte 0 -- -- 98
2020-09-13 04:00:00 10 4 Norte 9 Norte 0 -- -- 97
2020-09-13 03:00:00 10.8 4 Norte 11 Noroeste 0 -- -- 96
2020-09-13 02:00:00 11.5 5 Norte 12 Norte 0 -- -- 95
2020-09-13 01:00:00 12.4 5 Norte 9 Noroeste 0 -- -- 93
2020-09-13 00:00:00 13.9 5 Norte 10 Norte 0 -- -- 88
2020-09-12 23:00:00 15.8 4 Noroeste 12 Norte 0 -- -- 79
2020-09-12 22:00:00 17.5 5 Norte 17 Norte 0 -- -- 73
2020-09-12 21:00:00 19.2 6 Norte 19 Norte 0 -- -- 66
2020-09-12 20:00:00 20.4 7 Nordeste 29 Este 0 -- -- 62
2020-09-12 19:00:00 22.1 15 Nordeste 37 Nordeste 0 -- -- 58
2020-09-12 18:00:00 24.5 26 Nordeste 41 Nordeste 0 -- -- 53
2020-09-12 17:00:00 25.9 24 Nordeste 43 Nordeste 0 -- -- 49
2020-09-12 16:00:00 27.1 26 Nordeste 40 Nordeste 0 -- -- 44
2020-09-12 15:00:00 29 5 Sudeste 18 Sudoeste 0 -- -- 31
2020-09-12 14:00:00 27.7 12 Sur 21 Sur 0 -- -- 29
2020-09-12 13:00:00 26.3 9 Sur 16 Sur 0 -- -- 37
2020-09-12 12:00:00 25.3 2 Sudeste 6 Sur 0 -- -- 47
2020-09-12 11:00:00 20 0 Calma 4 Este 0 -- -- 66
2020-09-12 10:00:00 13.3 2 Norte 6 Norte 0 -- -- 90
2020-09-12 09:00:00 9.1 4 Norte 9 Norte 0 -- -- 100
2020-09-12 08:00:00 8.8 3 Norte 9 Noroeste 0 -- -- 100
2020-09-12 07:00:00 8.9 5 Norte 11 Noroeste 0 -- -- 100
2020-09-12 06:00:00 9.4 5 Norte 9 Noroeste 0 -- -- 99
2020-09-12 05:00:00 9.9 5 Norte 9 Norte 0 -- -- 99
2020-09-12 04:00:00 10.5 5 Norte 8 Noroeste 0 -- -- 99
2020-09-12 03:00:00 11 5 Norte 9 Norte 0 -- -- 97
2020-09-12 02:00:00 11.7 5 Norte 9 Norte 0 -- -- 97
2020-09-12 01:00:00 12.3 5 Noroeste 11 Noroeste 0 -- -- 95
2020-09-12 00:00:00 13.2 5 Noroeste 11 Noroeste 0 -- -- 92
2020-09-11 23:00:00 14.6 4 Noroeste 9 Noroeste 0 -- -- 87
2020-09-11 22:00:00 16.9 3 Oeste 14 Nordeste 0 -- -- 79
2020-09-11 21:00:00 17.7 5 Nordeste 19 Nordeste 0 -- -- 77
2020-09-11 20:00:00 19 9 Nordeste 33 Nordeste 0 -- -- 72
2020-09-11 19:00:00 20.4 18 Nordeste 40 Nordeste 0 -- -- 67
2020-09-11 18:00:00 22.1 26 Nordeste 45 Nordeste 0 -- -- 62
2020-09-11 17:00:00 23.2 32 Nordeste 48 Nordeste 0 -- -- 58
2020-09-11 16:00:00 24.9 29 Nordeste 42 Nordeste 0 -- -- 52
2020-09-11 15:00:00 25.9 29 Nordeste 37 Nordeste 0 -- -- 48
2020-09-11 14:00:00 26.7 23 Nordeste 36 Nordeste 0 -- -- 45
2020-09-11 13:00:00 26.4 17 Nordeste 31 Nordeste 0 -- -- 44
2020-09-11 12:00:00 25.2 17 Nordeste 26 Nordeste 0 -- -- 45
2020-09-11 11:00:00 21.5 2 Nordeste 5 Sudeste 0 -- -- 57
2020-09-11 10:00:00 15.4 0 Calma 4 Noroeste 0 -- -- 75
2020-09-11 09:00:00 9.9 0 Calma 8 Norte 0 -- -- 98
2020-09-11 08:00:00 9.6 5 Norte 9 Norte 0 -- -- 98
2020-09-11 07:00:00 10.1 2 Norte 8 Norte 0 -- -- 98
2020-09-11 06:00:00 10.7 4 Noroeste 8 Noroeste 0 -- -- 96
2020-09-11 05:00:00 11.4 4 Noroeste 8 Noroeste 0 -- -- 94
2020-09-11 04:00:00 12.1 4 Noroeste 7 Noroeste 0 -- -- 91
2020-09-11 03:00:00 13.4 3 Noroeste 8 Noroeste 0 -- -- 84
2020-09-11 02:00:00 15.3 3 Noroeste 11 Norte 0 -- -- 78
2020-09-11 01:00:00 15.4 7 Norte 18 Norte 0 -- -- 78
2020-09-11 00:00:00 16 6 Norte 19 Norte 0 -- -- 76
2020-09-10 23:00:00 16.5 7 Norte 28 Noroeste 0 -- -- 76
2020-09-10 22:00:00 17.3 13 Norte 30 Noroeste 0 -- -- 74
2020-09-10 21:00:00 17.7 8 Norte 35 Noroeste 0 -- -- 70
2020-09-10 20:00:00 18.4 8 Nordeste 31 Nordeste 0 -- -- 68
2020-09-10 19:00:00 20 16 Nordeste 46 Nordeste 0 -- -- 59
2020-09-10 18:00:00 22.3 22 Nordeste 43 Nordeste 0 -- -- 53
2020-09-10 17:00:00 23.8 27 Nordeste 50 Nordeste 0 -- -- 47
2020-09-10 16:00:00 24.3 28 Nordeste 45 Nordeste 0 -- -- 42
2020-09-10 15:00:00 25 22 Nordeste 43 Nordeste 0 -- -- 39
2020-09-10 14:00:00 24.6 29 Nordeste 44 Nordeste 0 -- -- 37
2020-09-10 13:00:00 25.1 24 Nordeste 44 Nordeste 0 -- -- 36
2020-09-10 12:00:00 24.4 22 Nordeste 40 Nordeste 0 -- -- 38
2020-09-10 11:00:00 22.3 17 Nordeste 31 Este 0 -- -- 45
2020-09-10 10:00:00 14.2 2 Nordeste 6 Noroeste 0 -- -- 79
2020-09-10 09:00:00 13 4 Norte 15 Noroeste 0 -- -- 82
2020-09-10 08:00:00 12.3 6 Norte 15 Norte 0 -- -- 84
2020-09-10 07:00:00 13.1 3 Norte 20 Norte 0 -- -- 80
2020-09-10 06:00:00 12.8 4 Norte 19 Nordeste 0 -- -- 80
2020-09-10 05:00:00 13.7 8 Norte 22 Norte 0 -- -- 76
2020-09-10 04:00:00 13.5 4 Norte 12 Norte 0 -- -- 78
2020-09-10 03:00:00 13.6 6 Norte 12 Norte 0 -- -- 77
2020-09-10 02:00:00 14 2 Norte 9 Noroeste 0 -- -- 76
2020-09-10 01:00:00 14.5 4 Norte 13 Este 0 -- -- 75
2020-09-10 00:00:00 15.7 4 Nordeste 24 Norte 0 -- -- 70
2020-09-09 23:00:00 16.3 10 Nordeste 24 Este 0 -- -- 68
2020-09-09 22:00:00 17 9 Nordeste 21 Nordeste 0 -- -- 69
2020-09-09 21:00:00 18.6 9 Norte 33 Noroeste 0 -- -- 57
2020-09-09 20:00:00 19.6 12 Norte 30 Norte 0 -- -- 54
2020-09-09 19:00:00 20.4 12 Norte 38 Norte 0 -- -- 54
2020-09-09 18:00:00 22.5 18 Nordeste 43 Nordeste 0 -- -- 49
2020-09-09 17:00:00 23.1 32 Nordeste 58 Nordeste 0 -- -- 47
2020-09-09 16:00:00 23.9 35 Nordeste 56 Nordeste 0 -- -- 46
2020-09-09 15:00:00 24 32 Nordeste 50 Nordeste 0 -- -- 44
2020-09-09 14:00:00 25.1 32 Nordeste 44 Nordeste 0 -- -- 41
2020-09-09 13:00:00 25.6 22 Nordeste 46 Nordeste 0 -- -- 40
2020-09-09 12:00:00 24.6 10 Este 28 Este 0 -- -- 40
2020-09-09 11:00:00 18.2 3 Norte 6 Norte 0 -- -- 58
2020-09-09 10:00:00 11.9 4 Nordeste 6 Nordeste 0 -- -- 77
2020-09-09 09:00:00 6.8 3 Nordeste 9 Noroeste 0 -- -- 98
2020-09-09 08:00:00 6.1 4 Norte 11 Noroeste 0 -- -- 98
2020-09-09 07:00:00 6.3 6 Norte 12 Noroeste 0 -- -- 98
2020-09-09 06:00:00 6.7 5 Norte 13 Norte 0 -- -- 97
2020-09-09 05:00:00 6.8 5 Norte 9 Norte 0 -- -- 96
2020-09-09 04:00:00 7.1 5 Norte 11 Norte 0 -- -- 96
2020-09-09 03:00:00 7.6 4 Norte 12 Noroeste 0 -- -- 95
2020-09-09 02:00:00 8.3 6 Norte 13 Norte 0 -- -- 92
2020-09-09 01:00:00 9 5 Norte 10 Norte 0 -- -- 90
2020-09-09 00:00:00 9.8 5 Norte 12 Norte 0 -- -- 87
2020-09-08 23:00:00 11 3 Norte 12 Norte 0 -- -- 83
2020-09-08 22:00:00 12.4 4 Norte 12 Norte 0 -- -- 78
2020-09-08 21:00:00 14.8 6 Noroeste 16 Este 0 -- -- 67
2020-09-08 20:00:00 17.4 9 Nordeste 29 Nordeste 0 -- -- 55
2020-09-08 19:00:00 20 17 Nordeste 33 Este 0 -- -- 48
2020-09-08 18:00:00 21.9 24 Nordeste 35 Nordeste 0 -- -- 44
2020-09-08 17:00:00 23.1 23 Nordeste 36 Nordeste 0 -- -- 41
2020-09-08 16:00:00 24.1 26 Nordeste 36 Nordeste 0 -- -- 37
2020-09-08 15:00:00 26 16 Nordeste 27 Nordeste 0 -- -- 32
2020-09-08 14:00:00 25.8 6 Nordeste 21 Nordeste 0 -- -- 30
2020-09-08 13:00:00 24.6 12 Nordeste 22 Nordeste 0 -- -- 31
2020-09-08 12:00:00 22.8 4 Nordeste 9 Nordeste 0 -- -- 34
2020-09-08 11:00:00 17.9 2 Nordeste 5 Nordeste 0 -- -- 47
2020-09-08 10:00:00 12.3 0 Calma 4 Norte 0 -- -- 64
2020-09-08 09:00:00 5.2 2 Norte 8 Norte 0 -- -- 94
2020-09-08 08:00:00 5.1 3 Norte 10 Norte 0 -- -- 94
2020-09-08 07:00:00 5.7 3 Norte 7 Noroeste 0 -- -- 92
2020-09-08 06:00:00 6.6 3 Noroeste 6 Norte 0 -- -- 88
2020-09-08 05:00:00 8.5 3 Noroeste 13 Este 0 -- -- 75
2020-09-08 04:00:00 11.5 4 Este 28 Nordeste 0 -- -- 65
2020-09-08 03:00:00 12.2 14 Nordeste 35 Nordeste 0 -- -- 62
2020-09-08 02:00:00 12.3 17 Nordeste 38 Nordeste 0 -- -- 63
2020-09-08 01:00:00 12.1 13 Nordeste 37 Norte 0 -- -- 65
2020-09-08 00:00:00 12.5 17 Norte 47 Noroeste 0 -- -- 65
2020-09-07 23:00:00 12.7 19 Norte 55 Noroeste 0 -- -- 63
2020-09-07 22:00:00 13.1 22 Norte 48 Noroeste 0 -- -- 60
2020-09-07 21:00:00 13.1 12 Norte 41 Norte 0 -- -- 59
2020-09-07 20:00:00 13.9 12 Norte 46 Norte 0 -- -- 55
2020-09-07 19:00:00 15.2 16 Norte 56 Norte 0 -- -- 50
2020-09-07 18:00:00 17 18 Norte 56 Nordeste 0 -- -- 47
2020-09-07 17:00:00 17.1 28 Nordeste 61 Nordeste 0 -- -- 48
2020-09-07 16:00:00 17.4 26 Nordeste 60 Nordeste 0 -- -- 48
2020-09-07 15:00:00 17.5 20 Nordeste 68 Este 0 -- -- 48
2020-09-07 14:00:00 17 30 Nordeste 65 Nordeste 0 -- -- 49
2020-09-07 13:00:00 16.5 33 Nordeste 65 Este 0 -- -- 50
2020-09-07 12:00:00 16.1 23 Nordeste 54 Nordeste 0 -- -- 50
2020-09-07 11:00:00 15 18 Norte 40 Norte 0 -- -- 56
2020-09-07 10:00:00 13.4 15 Norte 43 Norte 0 -- -- 61
2020-09-07 09:00:00 10.7 16 Norte 48 Norte 0 -- -- 72
2020-09-07 08:00:00 10 3 Nordeste 34 Nordeste 0 -- -- 76
2020-09-07 07:00:00 9.6 17 Nordeste 32 Nordeste 0 -- -- 77
2020-09-07 06:00:00 10 26 Nordeste 53 Noroeste 0 -- -- 72
2020-09-07 05:00:00 10.4 29 Norte 48 Nordeste 0 -- -- 71
2020-09-07 04:00:00 10.8 19 Norte 46 Norte 0 -- -- 74
2020-09-07 03:00:00 11.1 17 Nordeste 40 Nordeste 0 -- -- 74
2020-09-07 02:00:00 11.2 17 Norte 41 Norte 0 -- -- 74
2020-09-07 01:00:00 10.9 16 Nordeste 44 Nordeste 0 -- -- 76
2020-09-07 00:00:00 11.6 14 Nordeste 53 Norte 0 -- -- 79
2020-09-06 23:00:00 12.3 20 Norte 51 Norte 0 -- -- 75
2020-09-06 22:00:00 12.6 24 Norte 57 Norte 0 -- -- 73
2020-09-06 21:00:00 13.1 19 Norte 42 Norte 0 -- -- 73
2020-09-06 20:00:00 14.2 17 Norte 46 Noroeste 0 -- -- 70
2020-09-06 19:00:00 15.8 17 Nordeste 56 Nordeste 0 -- -- 64
2020-09-06 18:00:00 17.1 27 Nordeste 61 Nordeste 0 -- -- 59
2020-09-06 17:00:00 18.5 34 Nordeste 58 Nordeste 0 -- -- 53
2020-09-06 16:00:00 18.6 37 Nordeste 58 Nordeste 0 -- -- 53
2020-09-06 15:00:00 18.9 35 Nordeste 60 Nordeste 0 -- -- 55
2020-09-06 14:00:00 19.6 33 Nordeste 50 Nordeste 0 -- -- 56
2020-09-06 13:00:00 19.5 28 Nordeste 46 Nordeste 0 -- -- 58
2020-09-06 12:00:00 18.4 29 Nordeste 41 Nordeste 0 -- -- 58
2020-09-06 11:00:00 17.8 27 Nordeste 40 Nordeste 0 -- -- 61
2020-09-06 10:00:00 15.8 16 Nordeste 29 Nordeste 0 -- -- 72
2020-09-06 09:00:00 9.6 7 Norte 18 Norte 0 -- -- 97
2020-09-06 08:00:00 8.7 9 Norte 17 Norte 0 -- -- 97
2020-09-06 07:00:00 8.9 7 Norte 18 Nordeste 0 -- -- 98
2020-09-06 06:00:00 9.2 7 Norte 16 Noroeste 0 -- -- 98
2020-09-06 05:00:00 9.5 6 Norte 18 Norte 0 -- -- 97
2020-09-06 04:00:00 10 8 Norte 17 Norte 0 -- -- 97
2020-09-06 03:00:00 10.4 9 Norte 17 Noroeste 0 -- -- 96
2020-09-06 02:00:00 11.1 8 Norte 15 Norte 0 -- -- 95
2020-09-06 01:00:00 12.2 6 Norte 13 Nordeste 0 -- -- 92
2020-09-06 00:00:00 13 6 Norte 17 Este 0 -- -- 90
2020-09-05 23:00:00 14.5 4 Norte 31 Este 0 -- -- 84
2020-09-05 22:00:00 15.5 13 Nordeste 30 Este 0 -- -- 82
2020-09-05 21:00:00 15.8 14 Nordeste 33 Este 0 -- -- 82
2020-09-05 20:00:00 17 18 Nordeste 43 Este 0 -- -- 78
2020-09-05 19:00:00 19.3 20 Nordeste 46 Nordeste 0 -- -- 70
2020-09-05 18:00:00 20.8 28 Nordeste 47 Nordeste 0 -- -- 65
2020-09-05 17:00:00 22 30 Nordeste 49 Nordeste 0 -- -- 63
2020-09-05 16:00:00 23.8 31 Nordeste 46 Nordeste 0 -- -- 57
2020-09-05 15:00:00 24.9 31 Nordeste 44 Nordeste 0 -- -- 52
2020-09-05 14:00:00 26.6 27 Nordeste 36 Nordeste 0 -- -- 46
2020-09-05 13:00:00 27.9 14 Nordeste 27 Norte 0 -- -- 40
2020-09-05 12:00:00 27.9 8 Este 17 Nordeste 0 -- -- 39
2020-09-05 11:00:00 21.9 2 Norte 5 Noroeste 0 -- -- 54
2020-09-05 10:00:00 15.2 2 Norte 7 Norte 0 -- -- 70
2020-09-05 09:00:00 9.2 3 Norte 9 Noroeste 0 -- -- 93
2020-09-05 08:00:00 8.3 3 Norte 9 Noroeste 0 -- -- 94
2020-09-05 07:00:00 8.3 4 Norte 10 Norte 0 -- -- 95
2020-09-05 06:00:00 8.7 5 Norte 9 Norte 0 -- -- 93
2020-09-05 05:00:00 9.3 3 Norte 11 Noroeste 0 -- -- 91
2020-09-05 04:00:00 9.6 5 Norte 12 Norte 0 -- -- 90
2020-09-05 03:00:00 10.2 6 Norte 11 Norte 0 -- -- 88
2020-09-05 02:00:00 10.8 6 Norte 12 Norte 0 -- -- 86
2020-09-05 01:00:00 11.7 6 Norte 11 Norte 0 -- -- 83
2020-09-05 00:00:00 12.5 5 Norte 12 Noroeste 0 -- -- 81
2020-09-04 23:00:00 13.8 6 Norte 10 Norte 0 -- -- 76
2020-09-04 22:00:00 15.2 5 Norte 12 Norte 0 -- -- 71
2020-09-04 21:00:00 17.4 8 Norte 13 Norte 0 -- -- 62
2020-09-04 20:00:00 20.7 6 Noroeste 16 Noroeste 0 -- -- 49
2020-09-04 19:00:00 28.2 4 Oeste 15 Sudoeste 0 -- -- 25
2020-09-04 18:00:00 29.6 10 Sudoeste 23 Sudoeste 0 -- -- 22
2020-09-04 17:00:00 30.3 9 Sudoeste 22 Sur 0 -- -- 24
2020-09-04 16:00:00 31 8 Oeste 25 Oeste 0 -- -- 22
2020-09-04 15:00:00 30.1 11 Sur 30 Sur 0 -- -- 22
2020-09-04 14:00:00 29.1 11 Sudoeste 26 Sudoeste 0 -- -- 24
2020-09-04 13:00:00 27.6 13 Sur 24 Sur 0 -- -- 28
2020-09-04 12:00:00 25.5 7 Sur 15 Sudoeste 0 -- -- 33
2020-09-04 11:00:00 19.5 0 Calma 5 Este 0 -- -- 53
2020-09-04 10:00:00 12.8 0 Calma 4 Nordeste 0 -- -- 76
2020-09-04 09:00:00 7.3 0 Calma 7 Noroeste 0 -- -- 100
2020-09-04 08:00:00 6.7 4 Norte 10 Norte 0 -- -- 99
2020-09-04 07:00:00 7.1 2 Norte 8 Norte 0 -- -- 99
2020-09-04 06:00:00 7.5 4 Norte 9 Norte 0 -- -- 98
2020-09-04 05:00:00 8.1 2 Norte 9 Noroeste 0 -- -- 97
2020-09-04 04:00:00 8.6 4 Norte 10 Norte 0 -- -- 97
2020-09-04 03:00:00 9.3 4 Norte 10 Norte 0 -- -- 95
2020-09-04 02:00:00 10 5 Norte 10 Norte 0 -- -- 94
2020-09-04 01:00:00 10.9 6 Norte 10 Norte 0 -- -- 93
2020-09-04 00:00:00 12.1 6 Norte 11 Noroeste 0 -- -- 89
2020-09-03 23:00:00 13.3 6 Norte 11 Noroeste 0 -- -- 85
2020-09-03 22:00:00 14.8 7 Norte 12 Norte 0 -- -- 80
2020-09-03 21:00:00 17 5 Norte 11 Norte 0 -- -- 72
2020-09-03 20:00:00 19.9 6 Noroeste 16 Nordeste 0 -- -- 59
2020-09-03 19:00:00 25.8 7 Norte 21 Noroeste 0 -- -- 40
2020-09-03 18:00:00 28.4 14 Norte 22 Norte 0 -- -- 35
2020-09-03 17:00:00 29.7 9 Sudoeste 18 Sudoeste 0 -- -- 24
2020-09-03 16:00:00 29.2 11 Sudoeste 21 Sur 0 -- -- 23
2020-09-03 15:00:00 28.6 11 Sur 19 Sur 0 -- -- 21
2020-09-03 14:00:00 27.9 9 Sur 16 Sur 0 -- -- 23
2020-09-03 13:00:00 25.6 10 Sur 18 Sur 0 -- -- 29
2020-09-03 12:00:00 24.2 7 Sur 13 Sur 0 -- -- 35
2020-09-03 11:00:00 18.5 2 Nordeste 4 Nordeste 0 -- -- 54
2020-09-03 10:00:00 11.5 0 Calma 5 Noroeste 0 -- -- 73
2020-09-03 09:00:00 5.5 3 Norte 8 Nordeste 0 -- -- 98
2020-09-03 08:00:00 4.8 6 Norte 10 Nordeste 0 -- -- 97
2020-09-03 07:00:00 4.8 4 Norte 9 Norte 0 -- -- 97
2020-09-03 06:00:00 5.3 5 Norte 12 Norte 0 -- -- 96
2020-09-03 05:00:00 5.5 4 Norte 11 Norte 0 -- -- 96
2020-09-03 04:00:00 6.2 4 Norte 10 Norte 0 -- -- 94
2020-09-03 03:00:00 6.5 4 Norte 10 Noroeste 0 -- -- 93
2020-09-03 02:00:00 7.5 4 Norte 18 Norte 0 -- -- 90
2020-09-03 01:00:00 8.1 5 Norte 13 Norte 0 -- -- 88
2020-09-03 00:00:00 9.4 5 Noroeste 14 Noroeste 0 -- -- 83
2020-09-02 23:00:00 12.5 4 Norte 23 Nordeste 0 -- -- 67
2020-09-02 22:00:00 14.5 10 Nordeste 30 Nordeste 0 -- -- 58
2020-09-02 21:00:00 14.7 9 Norte 29 Este 0 -- -- 59
2020-09-02 20:00:00 15.6 13 Nordeste 34 Este 0 -- -- 58
2020-09-02 19:00:00 18 18 Nordeste 44 Este 0 -- -- 51
2020-09-02 18:00:00 20 24 Nordeste 43 Nordeste 0 -- -- 47
2020-09-02 17:00:00 21 29 Nordeste 42 Nordeste 0 -- -- 45
2020-09-02 16:00:00 21.9 26 Nordeste 40 Nordeste 0 -- -- 43
2020-09-02 15:00:00 22.6 22 Nordeste 40 Nordeste 0 -- -- 41
2020-09-02 14:00:00 22.2 22 Nordeste 41 Nordeste 0 -- -- 42
2020-09-02 13:00:00 20.8 25 Nordeste 41 Nordeste 0 -- -- 45
2020-09-02 12:00:00 19.7 22 Nordeste 36 Nordeste 0 -- -- 47
2020-09-02 11:00:00 18 24 Nordeste 44 Este 0 -- -- 53
2020-09-02 10:00:00 16.6 15 Nordeste 33 Nordeste 0 -- -- 58
2020-09-02 09:00:00 11.3 4 Norte 16 Norte 0 -- -- 75
2020-09-02 08:00:00 10.6 5 Norte 22 Noroeste 0 -- -- 77
2020-09-02 07:00:00 10.9 5 Norte 24 Norte 0 -- -- 78
2020-09-02 06:00:00 11.8 11 Norte 26 Nordeste 0 -- -- 78
2020-09-02 05:00:00 11.1 7 Norte 20 Noroeste 0 -- -- 83
2020-09-02 04:00:00 11.5 12 Norte 24 Norte 0 -- -- 82
2020-09-02 03:00:00 11.4 9 Nordeste 29 Norte 0 -- -- 84
2020-09-02 02:00:00 12.3 13 Norte 29 Nordeste 0 -- -- 79
2020-09-02 01:00:00 13 14 Norte 31 Norte 0 -- -- 76
2020-09-02 00:00:00 13.2 9 Norte 33 Norte 0 -- -- 72
2020-09-01 23:00:00 14.1 15 Norte 39 Norte 0 -- -- 74
2020-09-01 22:00:00 14.5 16 Norte 37 Norte 0 -- -- 70
2020-09-01 21:00:00 14.7 13 Norte 39 Norte 0 -- -- 68
2020-09-01 20:00:00 15.5 10 Nordeste 37 Nordeste 0 -- -- 62
2020-09-01 19:00:00 17.8 18 Nordeste 42 Nordeste 0 -- -- 52
2020-09-01 18:00:00 20.3 24 Nordeste 41 Nordeste 0 -- -- 45
2020-09-01 17:00:00 22 12 Nordeste 29 Nordeste 0 -- -- 37
2020-09-01 16:00:00 23.5 12 Norte 30 Nordeste 0 -- -- 36
2020-09-01 15:00:00 24 9 Norte 29 Norte 0 -- -- 33
2020-09-01 14:00:00 24.4 9 Norte 26 Noroeste 0 -- -- 32
2020-09-01 13:00:00 23.2 13 Norte 21 Norte 0 -- -- 35
2020-09-01 12:00:00 20.1 0 Calma 5 Norte 0 -- -- 47
2020-09-01 11:00:00 15.3 0 Calma 7 Noroeste 0 -- -- 59
2020-09-01 10:00:00 10.6 3 Norte 6 Noroeste 0 -- -- 76
2020-09-01 09:00:00 6.9 2 Nordeste 10 Norte 0 -- -- 95
2020-09-01 08:00:00 5 4 Norte 9 Nordeste 0 -- -- 98
2020-09-01 07:00:00 5.1 4 Norte 9 Nordeste 0 -- -- 98
2020-09-01 06:00:00 5.8 4 Norte 10 Norte 0 -- -- 98
2020-09-01 05:00:00 6.2 3 Norte 12 Norte 0 -- -- 97
2020-09-01 04:00:00 7.2 5 Norte 13 Norte 0 -- -- 96
2020-09-01 03:00:00 7.7 8 Norte 18 Norte 0 -- -- 97
2020-09-01 02:00:00 8.4 4 Norte 17 Norte 0 -- -- 95
2020-09-01 01:00:00 9.7 6 Norte 14 Noroeste 0 -- -- 91
2020-09-01 00:00:00 10.2 3 Norte 12 Norte 0 -- -- 91
2020-08-31 23:00:00 10.3 5 Norte 12 Norte 0 -- -- 92
2020-08-31 22:00:00 11.6 2 Noroeste 17 Noroeste 0 -- -- 85
2020-08-31 21:00:00 12.9 4 Norte 21 Nordeste 0 -- -- 79
2020-08-31 20:00:00 14.7 14 Nordeste 28 Nordeste 0 -- -- 71
2020-08-31 19:00:00 17.8 21 Nordeste 33 Nordeste 0 -- -- 59
2020-08-31 18:00:00 20.5 13 Norte 29 Norte 0 -- -- 52
2020-08-31 17:00:00 23 13 Norte 24 Norte 0 -- -- 44
2020-08-31 16:00:00 23.2 15 Norte 22 Norte 0 -- -- 41
2020-08-31 15:00:00 24.2 4 Nordeste 12 Noroeste 0 -- -- 33
2020-08-31 14:00:00 21.7 8 Sur 15 Sur 0 -- -- 33
2020-08-31 13:00:00 21.2 4 Oeste 13 Sur 0 -- -- 34
2020-08-31 12:00:00 19.7 2 Nordeste 6 Este 0 -- -- 45
2020-08-31 11:00:00 16.2 2 Nordeste 5 Este 0 -- -- 55
2020-08-31 10:00:00 9.7 2 Norte 6 Nordeste 0 -- -- 80
2020-08-31 09:00:00 4.2 3 Norte 9 Norte 0 -- -- 100
2020-08-31 08:00:00 3.1 3 Norte 12 Norte 0 -- -- 99
2020-08-31 07:00:00 3.3 4 Noroeste 8 Noroeste 0 -- -- 99
2020-08-31 06:00:00 4 3 Norte 11 Noroeste 0 -- -- 99
2020-08-31 05:00:00 4.5 5 Norte 13 Norte 0 -- -- 97
2020-08-31 04:00:00 5.2 4 Norte 19 Norte 0 -- -- 95
2020-08-31 03:00:00 6.3 7 Norte 22 Nordeste 0 -- -- 90
2020-08-31 02:00:00 7 12 Norte 22 Noroeste 0 -- -- 88
2020-08-31 01:00:00 8.1 9 Norte 21 Norte 0 -- -- 84
2020-08-31 00:00:00 9.1 6 Norte 27 Norte 0 -- -- 78
2020-08-30 23:00:00 9.5 9 Norte 20 Norte 0 -- -- 82
2020-08-30 22:00:00 10.4 9 Norte 22 Norte 0 -- -- 81
2020-08-30 21:00:00 10.6 13 Nordeste 33 Norte 0 -- -- 85
2020-08-30 20:00:00 11.3 17 Noroeste 33 Este 0 -- -- 80
2020-08-30 19:00:00 13 18 Nordeste 36 Nordeste 0 -- -- 70
2020-08-30 18:00:00 12.2 13 Norte 36 Nordeste 0 -- -- 77
2020-08-30 17:00:00 14.6 19 Nordeste 45 Nordeste 0 -- -- 68
2020-08-30 16:00:00 14.1 18 Nordeste 40 Nordeste 0 -- -- 73
2020-08-30 15:00:00 15.3 19 Norte 36 Norte 0 -- -- 67
2020-08-30 14:00:00 15.2 12 Norte 23 Noroeste 0 -- -- 83
2020-08-30 13:00:00 12.5 8 Nordeste 19 Nordeste 0.4 -- -- 89
2020-08-30 12:00:00 12 5 Nordeste 26 Nordeste 0.6 -- -- 97
2020-08-30 11:00:00 11.9 12 Nordeste 25 Nordeste 0 -- -- 94
2020-08-30 10:00:00 10.9 3 Este 10 Norte 0.2 -- -- 100
2020-08-30 09:00:00 8.7 3 Norte 15 Norte 0.6 -- -- 100
2020-08-30 08:00:00 8.5 0 Calma 8 Norte 0 -- -- 100
2020-08-30 07:00:00 8.3 3 Norte 10 Norte 0 -- -- 100
2020-08-30 06:00:00 8.3 4 Norte 9 Nordeste 0 -- -- 100
2020-08-30 05:00:00 8.1 2 Nordeste 14 Norte 0 -- -- 100
2020-08-30 04:00:00 8 5 Norte 14 Norte 0 -- -- 100
2020-08-30 03:00:00 7.9 7 Nordeste 18 Nordeste 0 -- -- 100
2020-08-30 02:00:00 8.6 7 Nordeste 14 Nordeste 3.4 -- -- 99
2020-08-30 01:00:00 9 5 Nordeste 17 Norte 3.6 -- -- 98
2020-08-30 00:00:00 9.7 6 Norte 18 Nordeste 2 -- -- 97
2020-08-29 23:00:00 10 8 Nordeste 18 Nordeste 0.6 -- -- 97
2020-08-29 22:00:00 10.2 8 Norte 23 Nordeste 1 -- -- 93
2020-08-29 21:00:00 11.5 14 Nordeste 27 Nordeste 0 -- -- 76
2020-08-29 20:00:00 12.8 10 Nordeste 30 Nordeste 0 -- -- 70
2020-08-29 19:00:00 13.7 14 Norte 32 Noroeste 0 -- -- 68
2020-08-29 18:00:00 15.1 10 Norte 28 Norte 0 -- -- 63
2020-08-29 17:00:00 16.3 21 Nordeste 33 Noroeste 0 -- -- 59
2020-08-29 16:00:00 17.7 18 Nordeste 39 Este 0 -- -- 51
2020-08-29 15:00:00 19 17 Norte 35 Norte 0 -- -- 47
2020-08-29 14:00:00 16.3 13 Norte 35 Nordeste 0 -- -- 59
2020-08-29 13:00:00 15.6 19 Nordeste 32 Nordeste 0 -- -- 60
2020-08-29 12:00:00 14.7 15 Nordeste 32 Noroeste 0 -- -- 71
2020-08-29 11:00:00 15.5 21 Nordeste 33 Nordeste 0 -- -- 61
2020-08-29 10:00:00 12.6 13 Nordeste 24 Nordeste 0 -- -- 80
2020-08-29 09:00:00 10.8 8 Norte 20 Norte 0 -- -- 87
2020-08-29 08:00:00 9.1 10 Norte 20 Noroeste 0 -- -- 84
2020-08-29 07:00:00 8 11 Norte 21 Noroeste 0 -- -- 85
2020-08-29 06:00:00 9 13 Norte 23 Norte 0 -- -- 84
2020-08-29 05:00:00 10.6 10 Norte 24 Norte 0 -- -- 77
2020-08-29 04:00:00 10.8 10 Norte 21 Noroeste 0 -- -- 75
2020-08-29 03:00:00 11.8 16 Norte 33 Norte 0 -- -- 68
2020-08-29 02:00:00 11.9 9 Norte 27 Noroeste 0 -- -- 68
2020-08-29 01:00:00 11.4 8 Norte 27 Nordeste 0 -- -- 67
2020-08-29 00:00:00 11.9 12 Norte 31 Norte 0 -- -- 61
2020-08-28 23:00:00 11.9 12 Norte 35 Norte 0 -- -- 66
2020-08-28 22:00:00 13.2 12 Norte 33 Noroeste 0 -- -- 76
2020-08-28 21:00:00 13.3 11 Nordeste 38 Nordeste 0 -- -- 80
2020-08-28 20:00:00 14.7 12 Nordeste 35 Nordeste 0 -- -- 75
2020-08-28 19:00:00 16.2 18 Nordeste 41 Nordeste 0 -- -- 69
2020-08-28 18:00:00 19.2 26 Nordeste 43 Nordeste 0 -- -- 60
2020-08-28 17:00:00 17.9 23 Nordeste 36 Nordeste 0 -- -- 65
2020-08-28 16:00:00 18.2 24 Nordeste 40 Nordeste 0 -- -- 62
2020-08-28 15:00:00 19.2 14 Nordeste 33 Nordeste 0 -- -- 63
2020-08-28 14:00:00 17.5 16 Nordeste 30 Nordeste 0 -- -- 69
2020-08-28 13:00:00 17.6 15 Nordeste 28 Este 0 -- -- 70
2020-08-28 12:00:00 17.8 12 Nordeste 27 Este 0 -- -- 72
2020-08-28 11:00:00 18 11 Nordeste 24 Norte 0 -- -- 79
2020-08-28 10:00:00 17.2 3 Norte 6 Noroeste 0 -- -- 86
2020-08-28 09:00:00 15.7 3 Norte 7 Norte 0 -- -- 89
2020-08-28 08:00:00 14.8 2 Norte 12 Noroeste 0 -- -- 92
2020-08-28 07:00:00 14.1 5 Sudoeste 19 Norte 0 -- -- 92
2020-08-28 06:00:00 13.4 3 Norte 8 Noroeste 0 -- -- 94
2020-08-28 05:00:00 13.3 4 Nordeste 15 Nordeste 0 -- -- 93
2020-08-28 04:00:00 13.4 3 Nordeste 8 Norte 0 -- -- 93
2020-08-28 03:00:00 14.2 5 Norte 10 Norte 0 -- -- 91
2020-08-28 02:00:00 14.5 4 Nordeste 9 Noroeste 0 -- -- 92
2020-08-28 01:00:00 15.5 3 Norte 14 Norte 0 -- -- 90
2020-08-28 00:00:00 16.1 9 Norte 15 Norte 0 -- -- 87
2020-08-27 23:00:00 18 7 Norte 16 Norte 0 -- -- 80
2020-08-27 22:00:00 19.1 8 Nordeste 23 Norte 0 -- -- 76
2020-08-27 21:00:00 20.7 16 Nordeste 29 Nordeste 0 -- -- 70
2020-08-27 20:00:00 22.2 19 Nordeste 36 Nordeste 0 -- -- 65
2020-08-27 19:00:00 24.9 21 Nordeste 37 Nordeste 0 -- -- 56
2020-08-27 18:00:00 27.4 25 Nordeste 40 Nordeste 0 -- -- 49
2020-08-27 17:00:00 29.3 25 Nordeste 39 Nordeste 0 -- -- 45
2020-08-27 16:00:00 34.3 11 Norte 29 Sudoeste 0 -- -- 30
2020-08-27 15:00:00 32.4 11 Sur 26 Sudoeste 0 -- -- 29
2020-08-27 14:00:00 32.5 6 Sudeste 23 Sur 0 -- -- 28
2020-08-27 13:00:00 30.2 11 Sur 18 Sur 0 -- -- 33
2020-08-27 12:00:00 29.6 3 Norte 8 Este 0 -- -- 31
2020-08-27 11:00:00 23.9 0 Calma 4 Sudeste 0 -- -- 46
2020-08-27 10:00:00 17.2 0 Calma 5 Norte 0 -- -- 66
2020-08-27 09:00:00 11.7 3 Nordeste 7 Nordeste 0 -- -- 84
2020-08-27 08:00:00 9.5 3 Norte 9 Noroeste 0 -- -- 92
2020-08-27 07:00:00 9.7 6 Norte 10 Norte 0 -- -- 92
2020-08-27 06:00:00 9.8 3 Norte 8 Norte 0 -- -- 93
2020-08-27 05:00:00 10.2 3 Norte 9 Norte 0 -- -- 92
2020-08-27 04:00:00 11.1 5 Norte 8 Norte 0 -- -- 91
2020-08-27 03:00:00 11.7 3 Nordeste 9 Norte 0 -- -- 90
2020-08-27 02:00:00 12.9 3 Norte 13 Nordeste 0 -- -- 90
2020-08-27 01:00:00 14.2 6 Norte 13 Norte 0 -- -- 87
2020-08-27 00:00:00 15.4 6 Norte 13 Norte 0 -- -- 86
2020-08-26 23:00:00 17.2 9 Norte 20 Nordeste 0 -- -- 81
2020-08-26 22:00:00 18.6 8 Nordeste 21 Nordeste 0 -- -- 75
2020-08-26 21:00:00 20.8 14 Nordeste 23 Nordeste 0 -- -- 64
2020-08-26 20:00:00 23.4 6 Norte 16 Noroeste 0 -- -- 57
2020-08-26 19:00:00 28.5 11 Noroeste 24 Norte 0 -- -- 44
2020-08-26 18:00:00 30.9 14 Noroeste 31 Norte 0 -- -- 44
2020-08-26 17:00:00 31.6 22 Norte 32 Norte 0 -- -- 42
2020-08-26 16:00:00 32.3 12 Sur 26 Sur 0 -- -- 29
2020-08-26 15:00:00 31.9 13 Sur 23 Sudoeste 0 -- -- 32
2020-08-26 14:00:00 30.9 12 Sur 25 Sudoeste 0 -- -- 34
2020-08-26 13:00:00 29.7 12 Sur 23 Sur 0 -- -- 39
2020-08-26 12:00:00 27 13 Sur 23 Sur 0 -- -- 46
2020-08-26 11:00:00 24.1 0 Calma 5 Sudeste 0 -- -- 48
2020-08-26 10:00:00 17.6 0 Calma 5 Nordeste 0 -- -- 70
2020-08-26 09:00:00 12.9 2 Nordeste 5 Noroeste 0 -- -- 93
2020-08-26 08:00:00 10.8 0 Calma 8 Norte 0 -- -- 97
2020-08-26 07:00:00 10.9 2 Norte 10 Norte 0 -- -- 96
2020-08-26 06:00:00 11.3 5 Norte 10 Noroeste 0 -- -- 95
2020-08-26 05:00:00 11.8 4 Norte 9 Norte 0 -- -- 95
2020-08-26 04:00:00 12.2 3 Nordeste 8 Noroeste 0 -- -- 93
2020-08-26 03:00:00 13.2 5 Norte 17 Nordeste 0 -- -- 89
2020-08-26 02:00:00 14.2 6 Norte 15 Norte 0 -- -- 85
2020-08-26 01:00:00 14.9 5 Norte 16 Norte 0 -- -- 83
2020-08-26 00:00:00 15.6 4 Norte 13 Norte 0 -- -- 82
2020-08-25 23:00:00 17 7 Norte 15 Nordeste 0 -- -- 77
2020-08-25 22:00:00 18.4 8 Norte 24 Nordeste 0 -- -- 73
2020-08-25 21:00:00 20.9 15 Nordeste 26 Nordeste 0 -- -- 59
2020-08-25 20:00:00 23.6 18 Nordeste 30 Nordeste 0 -- -- 51
2020-08-25 19:00:00 29.8 10 Noroeste 16 Noroeste 0 -- -- 33
2020-08-25 18:00:00 31.7 7 Sudoeste 27 Sur 0 -- -- 22
2020-08-25 17:00:00 31.8 13 Sur 26 Sur 0 -- -- 21
2020-08-25 16:00:00 33.1 4 Noroeste 27 Sur 0 -- -- 20
2020-08-25 15:00:00 32.1 9 Sudoeste 24 Sur 0 -- -- 20
2020-08-25 14:00:00 31.4 7 Sur 20 Sudoeste 0 -- -- 25
2020-08-25 13:00:00 29.7 9 Sur 18 Sur 0 -- -- 30
2020-08-25 12:00:00 27.4 9 Sur 17 Sudoeste 0 -- -- 35
2020-08-25 11:00:00 21.3 2 Este 6 Este 0 -- -- 54
2020-08-25 10:00:00 14.3 0 Calma 5 Nordeste 0 -- -- 75
2020-08-25 09:00:00 9.4 3 Nordeste 7 Norte 0 -- -- 99
2020-08-25 08:00:00 7.3 3 Norte 8 Norte 0 -- -- 99
2020-08-25 07:00:00 7.4 3 Norte 9 Noroeste 0 -- -- 99
2020-08-25 06:00:00 7.7 3 Norte 8 Norte 0 -- -- 98
2020-08-25 05:00:00 8.2 4 Norte 9 Norte 0 -- -- 98
2020-08-25 04:00:00 8.8 5 Norte 9 Norte 0 -- -- 98
2020-08-25 03:00:00 9.2 4 Norte 10 Norte 0 -- -- 97
2020-08-25 02:00:00 10 6 Norte 12 Norte 0 -- -- 97
2020-08-25 01:00:00 11 5 Norte 10 Norte 0 -- -- 95
2020-08-25 00:00:00 12 5 Norte 10 Noroeste 0 -- -- 94
2020-08-24 23:00:00 13.5 5 Norte 12 Norte 0 -- -- 90
2020-08-24 22:00:00 15 4 Norte 13 Nordeste 0 -- -- 85
2020-08-24 21:00:00 17.4 8 Nordeste 20 Nordeste 0 -- -- 74
2020-08-24 20:00:00 19.8 9 Nordeste 17 Nordeste 0 -- -- 64
2020-08-24 19:00:00 24.6 13 Noroeste 22 Norte 0 -- -- 49
2020-08-24 18:00:00 26.5 16 Norte 29 Norte 0 -- -- 43
2020-08-24 17:00:00 28 16 Norte 24 Noroeste 0 -- -- 38
2020-08-24 16:00:00 28.1 15 Norte 24 Norte 0 -- -- 37
2020-08-24 15:00:00 27.8 8 Nordeste 21 Nordeste 0 -- -- 40
2020-08-24 14:00:00 25.9 14 Nordeste 32 Norte 0 -- -- 41
2020-08-24 13:00:00 23.1 23 Nordeste 33 Nordeste 0 -- -- 46
2020-08-24 12:00:00 22.5 17 Nordeste 30 Nordeste 0 -- -- 49
2020-08-24 11:00:00 20.3 16 Nordeste 29 Norte 0 -- -- 53
2020-08-24 10:00:00 16.7 15 Nordeste 32 Nordeste 0 -- -- 68
2020-08-24 09:00:00 10.3 6 Noroeste 14 Noroeste 0 -- -- 92
2020-08-24 08:00:00 8.5 8 Noroeste 15 Norte 0 -- -- 96
2020-08-24 07:00:00 9 8 Noroeste 17 Norte 0 -- -- 94
2020-08-24 06:00:00 9.7 6 Noroeste 17 Norte 0 -- -- 92
2020-08-24 05:00:00 9.9 8 Norte 19 Norte 0 -- -- 92
2020-08-24 04:00:00 11.8 4 Norte 16 Nordeste 0 -- -- 85
2020-08-24 03:00:00 12 5 Norte 24 Nordeste 0 -- -- 85
2020-08-24 02:00:00 13.9 9 Nordeste 22 Este 0 -- -- 81
2020-08-24 01:00:00 14.2 14 Nordeste 29 Nordeste 0 -- -- 81
2020-08-24 00:00:00 14.7 10 Nordeste 25 Nordeste 0 -- -- 79
2020-08-23 23:00:00 15.2 10 Nordeste 26 Nordeste 0 -- -- 78
2020-08-23 22:00:00 15.9 9 Nordeste 23 Nordeste 0 -- -- 74
2020-08-23 21:00:00 16.4 8 Nordeste 34 Nordeste 0 -- -- 69
2020-08-23 20:00:00 17.4 11 Nordeste 43 Este 0 -- -- 63
2020-08-23 19:00:00 19.1 23 Nordeste 48 Este 0 -- -- 59
2020-08-23 18:00:00 21.2 29 Nordeste 51 Nordeste 0 -- -- 52
2020-08-23 17:00:00 22 32 Nordeste 53 Nordeste 0 -- -- 50
2020-08-23 16:00:00 22.3 33 Nordeste 48 Nordeste 0 -- -- 51
2020-08-23 15:00:00 23.5 28 Nordeste 44 Nordeste 0 -- -- 47
2020-08-23 14:00:00 23.5 29 Nordeste 45 Nordeste 0 -- -- 47
2020-08-23 13:00:00 22.8 26 Nordeste 49 Nordeste 0 -- -- 46
2020-08-23 12:00:00 21.3 28 Nordeste 50 Nordeste 0 -- -- 49
2020-08-23 11:00:00 19.7 25 Nordeste 46 Nordeste 0 -- -- 55
2020-08-23 10:00:00 18.2 19 Nordeste 39 Nordeste 0 -- -- 60
2020-08-23 09:00:00 12.7 6 Norte 18 Noroeste 0 -- -- 82
2020-08-23 08:00:00 10.2 7 Norte 21 Norte 0 -- -- 90
2020-08-23 07:00:00 10.3 6 Norte 24 Norte 0 -- -- 90
2020-08-23 06:00:00 10.6 9 Norte 23 Noroeste 0 -- -- 92
2020-08-23 05:00:00 10.9 6 Norte 24 Norte 0 -- -- 89
2020-08-23 04:00:00 11.5 9 Norte 34 Norte 0 -- -- 87
2020-08-23 03:00:00 12.3 9 Norte 26 Norte 0 -- -- 85
2020-08-23 02:00:00 12.3 12 Norte 27 Norte 0 -- -- 86
2020-08-23 01:00:00 13.5 12 Norte 33 Nordeste 0 -- -- 82
2020-08-23 00:00:00 15.1 10 Nordeste 28 Este 0 -- -- 78
2020-08-22 23:00:00 15.7 10 Nordeste 27 Nordeste 0 -- -- 78
2020-08-22 22:00:00 15.9 6 Nordeste 23 Norte 0 -- -- 77
2020-08-22 21:00:00 17 11 Nordeste 29 Este 0 -- -- 70
2020-08-22 20:00:00 18.3 17 Nordeste 39 Nordeste 0 -- -- 63
2020-08-22 19:00:00 21 24 Nordeste 42 Nordeste 0 -- -- 58
2020-08-22 18:00:00 23.2 23 Nordeste 34 Nordeste 0 -- -- 54
2020-08-22 17:00:00 24.7 21 Nordeste 32 Nordeste 0 -- -- 52
2020-08-22 16:00:00 26.3 17 Norte 28 Noroeste 0 -- -- 47
2020-08-22 15:00:00 27.1 18 Norte 32 Noroeste 0 -- -- 46
2020-08-22 14:00:00 27.3 14 Norte 24 Norte 0 -- -- 44
2020-08-22 13:00:00 25.5 11 Norte 18 Norte 0 -- -- 44
2020-08-22 12:00:00 24.4 7 Nordeste 13 Nordeste 0 -- -- 52
2020-08-22 11:00:00 20.3 5 Norte 9 Norte 0 -- -- 68
2020-08-22 10:00:00 16.7 0 Calma 6 Noroeste 0 -- -- 83
2020-08-22 09:00:00 13 3 Norte 8 Norte 0 -- -- 100
2020-08-22 08:00:00 11.5 3 Norte 10 Norte 0 -- -- 100
2020-08-22 07:00:00 11.8 3 Nordeste 9 Nordeste 0 -- -- 99
2020-08-22 06:00:00 12.9 5 Norte 13 Nordeste 0 -- -- 98
2020-08-22 05:00:00 13.8 5 Norte 13 Norte 0 -- -- 96
2020-08-22 04:00:00 14.8 7 Norte 16 Nordeste 0 -- -- 95
2020-08-22 03:00:00 15.1 10 Nordeste 19 Nordeste 0 -- -- 96
2020-08-22 02:00:00 15.6 11 Nordeste 21 Nordeste 0 -- -- 97
2020-08-22 01:00:00 16 10 Nordeste 20 Nordeste 0 -- -- 98
2020-08-22 00:00:00 16.5 7 Nordeste 16 Nordeste 0 -- -- 97